Time;durP1;ratioP1;P1;durP2;ratioP2;P2;SDS_P1;SDS_P2;PMS_P1;PMS_P2;Temp;Humidity;BMP_temperature;BMP_pressure;BME280_temperature;BME280_humidity;BME280_pressure;Samples;Min_cycle;Max_cycle;Signal;HPM_P1;HPM_P2
2022/07/02 00:03:07;;;;;;;;;;;;;;;11.77;81.40;99923.81;8310981;28;19964;-76
2022/07/02 00:07:14;;;;;;;;;;;;;;;11.75;80.93;99923.81;8312531;28;20019;-76
2022/07/02 00:11:16;;;;;;;;;;;;;;;11.68;80.86;99916.88;8314270;28;19929;-76
2022/07/02 00:15:18;;;;;;;;;;;;;;;11.59;80.89;99919.47;8302186;28;19925;-76
2022/07/02 00:19:20;;;;;;;;;;;;;;;11.56;81.59;99918.59;8302759;28;19929;-75
2022/07/02 00:23:21;;;;;;;;;;;;;;;11.49;81.91;99909.94;8300832;28;19929;-76
2022/07/02 00:27:23;;;;;;;;;;;;;;;11.42;82.11;99908.19;8292981;28;19929;-76
2022/07/02 00:31:24;;;;;;;;;;;;;;;11.41;82.35;99901.25;8280395;28;19940;-76
2022/07/02 00:35:27;;;;;;;;;;;;;;;11.39;82.41;99909.06;8308474;28;20728;-76
2022/07/02 00:39:28;;;;;;;;;;;;;;;11.38;82.18;99914.28;8340730;28;19960;-76
2022/07/02 00:43:31;;;;;;;;;;;;;;;11.29;82.01;99909.03;8332947;28;20603;-75
2022/07/02 00:47:35;;;;;;;;;;;;;;;11.20;82.34;99915.97;8335957;28;20396;-76
2022/07/02 00:51:36;;;;;;;;;;;;;;;11.18;82.05;99914.25;8337843;28;19939;-75
2022/07/02 00:55:38;;;;;;;;;;;;;;;11.13;83.01;99924.66;8346504;28;19928;-75
2022/07/02 00:59:40;;;;;;;;;;;;;;;11.08;83.12;99917.69;8345605;28;19929;-76
2022/07/02 01:03:42;;;;;;;;;;;;;;;11.02;82.92;99918.56;8341822;28;20033;-76
2022/07/02 01:07:45;;;;;;;;;;;;;;;10.96;83.18;99917.69;8330424;28;19933;-75
2022/07/02 01:11:47;;;;;;;;;;;;;;;10.98;83.53;99915.94;8338331;28;20057;-75
2022/07/02 01:15:49;;;;;;;;;;;;;;;10.92;83.36;99918.50;8328527;28;19976;-76
2022/07/02 01:19:51;;;;;;;;;;;;;;;10.87;83.71;99918.50;8338734;28;20039;-75
2022/07/02 01:23:53;;;;;;;;;;;;;;;10.86;83.83;99917.63;8327413;28;19968;-75
2022/07/02 01:27:54;;;;;;;;;;;;;;;10.76;83.77;99915.84;8346615;28;19971;-76
2022/07/02 01:31:56;;;;;;;;;;;;;;;10.79;83.94;99917.63;8349999;28;20205;-75
2022/07/02 01:35:58;;;;;;;;;;;;;;;10.79;83.94;99909.84;8341523;28;20636;-75
2022/07/02 01:39:59;;;;;;;;;;;;;;;10.76;84.06;99910.66;8348142;28;20045;-76
2022/07/02 01:44:00;;;;;;;;;;;;;;;10.73;84.18;99907.19;8351950;28;19935;-75
2022/07/02 01:48:02;;;;;;;;;;;;;;;10.71;84.09;99915.00;8340811;28;20347;-76
2022/07/02 01:52:04;;;;;;;;;;;;;;;10.65;83.93;99920.16;8346082;28;19975;-75
2022/07/02 01:56:05;;;;;;;;;;;;;;;10.61;84.67;99910.63;8355287;28;20397;-75
2022/07/02 02:00:09;;;;;;;;;;;;;;;10.59;84.63;99915.84;8344879;28;20027;-75
2022/07/02 02:04:10;;;;;;;;;;;;;;;10.53;84.25;99909.72;8360674;28;19972;-75
2022/07/02 02:08:12;;;;;;;;;;;;;;;10.44;84.55;99914.91;8358070;28;19928;-75
2022/07/02 02:12:13;;;;;;;;;;;;;;;10.39;85.15;99909.66;8356095;28;19937;-75
2022/07/02 02:16:14;;;;;;;;;;;;;;;10.42;85.17;99914.03;8351781;28;19929;-76
2022/07/02 02:20:16;;;;;;;;;;;;;;;10.39;85.37;99917.44;8353799;28;19929;-75
2022/07/02 02:24:17;;;;;;;;;;;;;;;10.38;84.98;99912.25;8358001;28;20260;-75
2022/07/02 02:28:19;;;;;;;;;;;;;;;10.36;85.42;99916.56;8360499;28;20290;-76
2022/07/02 02:32:20;;;;;;;;;;;;;;;10.31;85.13;99908.78;8353360;28;20028;-75
2022/07/02 02:36:21;;;;;;;;;;;;;;;10.28;85.04;99906.16;8316189;28;20214;-75
2022/07/02 02:40:23;;;;;;;;;;;;;;;10.21;85.32;99917.34;8327412;28;20186;-77
2022/07/02 02:44:24;;;;;;;;;;;;;;;10.18;85.49;99918.19;8306670;28;19937;-75
2022/07/02 02:48:26;;;;;;;;;;;;;;;10.10;85.05;99912.09;8299390;28;19971;-75
2022/07/02 02:52:27;;;;;;;;;;;;;;;10.08;85.69;99910.34;8306301;28;19965;-75
2022/07/02 02:56:29;;;;;;;;;;;;;;;10.05;85.65;99916.34;8305752;28;19926;-76
2022/07/02 03:00:30;;;;;;;;;;;;;;;10.00;85.95;99921.53;8282933;28;20016;-76
2022/07/02 03:04:31;;;;;;;;;;;;;;;9.97;86.06;99925.84;8307603;28;20375;-76
2022/07/02 03:08:33;;;;;;;;;;;;;;;9.88;85.70;99928.38;8306048;28;20509;-77
2022/07/02 03:12:34;;;;;;;;;;;;;;;9.86;85.77;99930.94;8319538;28;19972;-75
2022/07/02 03:16:35;;;;;;;;;;;;;;;9.82;85.73;99929.19;8283847;28;19940;-77
2022/07/02 03:20:37;;;;;;;;;;;;;;;9.80;85.65;99928.31;8293494;28;20020;-77
2022/07/02 03:24:38;;;;;;;;;;;;;;;9.80;85.99;99935.22;8306881;28;20001;-75
2022/07/02 03:28:40;;;;;;;;;;;;;;;9.75;85.84;99939.50;8295702;28;20375;-77
2022/07/02 03:32:42;;;;;;;;;;;;;;;9.73;85.65;99938.63;8302350;28;19964;-76
2022/07/02 03:36:43;;;;;;;;;;;;;;;9.68;85.40;99936.84;8332690;28;20039;-77
2022/07/02 03:40:45;;;;;;;;;;;;;;;9.67;85.99;99947.22;8332743;28;19961;-77
2022/07/02 03:44:46;;;;;;;;;;;;;;;9.64;86.27;99939.41;8336120;28;19933;-77
2022/07/02 03:48:48;;;;;;;;;;;;;;;9.61;86.10;99944.59;8329184;28;19928;-77
2022/07/02 03:52:49;;;;;;;;;;;;;;;9.59;86.63;99941.13;8318358;28;19939;-77
2022/07/02 03:56:57;;;;;;;;;;;;;;;9.57;85.96;99941.09;8325469;28;19929;-78
2022/07/02 04:00:59;;;;;;;;;;;;;;;9.60;86.66;99945.44;8325883;28;19964;-78
2022/07/02 04:05:00;;;;;;;;;;;;;;;9.60;86.97;99935.06;8335699;28;19935;-78
2022/07/02 04:09:02;;;;;;;;;;;;;;;9.65;87.30;99939.44;8339229;28;20008;-77
2022/07/02 04:13:03;;;;;;;;;;;;;;;9.72;86.93;99937.78;8319963;28;20417;-77
2022/07/02 04:17:05;;;;;;;;;;;;;;;9.80;87.50;99935.22;8337128;28;19929;-77
2022/07/02 04:21:06;;;;;;;;;;;;;;;9.82;87.26;99930.91;8337645;28;19929;-77
2022/07/02 04:25:08;;;;;;;;;;;;;;;9.91;88.18;99931.84;8340453;28;20320;-77
2022/07/02 04:29:09;;;;;;;;;;;;;;;10.03;87.65;99931.06;8333741;28;20032;-77
2022/07/02 04:33:11;;;;;;;;;;;;;;;10.17;87.75;99934.59;8321830;28;20011;-77
2022/07/02 04:37:12;;;;;;;;;;;;;;;10.32;86.90;99933.88;8279187;28;20465;-78
2022/07/02 04:41:14;;;;;;;;;;;;;;;10.47;87.05;99928.75;8294509;28;19933;-77
2022/07/02 04:45:15;;;;;;;;;;;;;;;10.62;86.19;99929.69;8308372;28;20040;-77
2022/07/02 04:49:16;;;;;;;;;;;;;;;10.69;86.52;99931.44;8332171;28;20056;-77
2022/07/02 04:53:18;;;;;;;;;;;;;;;10.86;86.23;99933.22;8328440;28;19929;-77
2022/07/02 04:57:19;;;;;;;;;;;;;;;11.06;85.76;99937.59;8316223;28;19936;-77
2022/07/02 05:01:20;;;;;;;;;;;;;;;11.25;85.26;99941.97;8318241;28;20028;-77
2022/07/02 05:05:22;;;;;;;;;;;;;;;11.48;84.94;99944.59;8296537;28;20008;-77
2022/07/02 05:09:24;;;;;;;;;;;;;;;11.63;84.23;99936.81;8299681;28;19936;-77
2022/07/02 05:13:25;;;;;;;;;;;;;;;11.85;84.13;99936.81;8311152;28;20312;-78
2022/07/02 05:17:26;;;;;;;;;;;;;;;12.07;83.87;99941.16;8320197;28;20052;-77
2022/07/02 05:21:28;;;;;;;;;;;;;;;12.29;83.39;99940.22;8314013;28;20012;-77
2022/07/02 05:25:29;;;;;;;;;;;;;;;12.61;83.19;99928.84;8315617;28;20028;-78
2022/07/02 05:29:30;;;;;;;;;;;;;;;12.94;81.90;99928.69;8304149;28;20024;-77
2022/07/02 05:33:32;;;;;;;;;;;;;;;13.30;79.80;99932.84;8339092;28;19928;-77
2022/07/02 05:37:33;;;;;;;;;;;;;;;13.67;78.46;99929.09;8351308;28;19929;-77
2022/07/02 05:41:35;;;;;;;;;;;;;;;14.08;77.78;99931.31;8324551;28;19928;-78
2022/07/02 05:45:36;;;;;;;;;;;;;;;14.69;75.42;99935.91;8355372;28;20031;-77
2022/07/02 05:49:42;;;;;;;;;;;;;;;15.32;73.22;99930.69;8334082;28;20003;-77
2022/07/02 05:53:44;;;;;;;;;;;;;;;15.88;70.89;99929.78;8333475;28;20044;-77
2022/07/02 05:57:45;;;;;;;;;;;;;;;16.36;68.57;99934.19;8344921;28;20541;-77
2022/07/02 06:01:46;;;;;;;;;;;;;;;16.75;66.56;99928.16;8324459;28;19933;-78
2022/07/02 06:10:08;;;;;;;;;;;;;;;17.82;63.08;99925.72;8339150;28;20294;-78
2022/07/02 06:14:09;;;;;;;;;;;;;;;18.40;61.18;99925.03;8337841;28;19941;-78
2022/07/02 06:18:12;;;;;;;;;;;;;;;19.04;58.70;99926.75;8342216;28;19929;-79
2022/07/02 06:22:14;;;;;;;;;;;;;;;19.62;56.79;99925.78;8337077;28;19955;-78
2022/07/02 06:26:15;;;;;;;;;;;;;;;20.20;54.44;99922.03;8342557;28;19940;-78
2022/07/02 06:30:17;;;;;;;;;;;;;;;20.73;52.13;99926.31;8326617;28;20007;-78
2022/07/02 06:34:19;;;;;;;;;;;;;;;21.17;51.25;99918.47;8338511;28;19940;-79
2022/07/02 06:38:21;;;;;;;;;;;;;;;21.60;50.08;99915.00;8320045;28;20040;-78
2022/07/02 06:42:23;;;;;;;;;;;;;;;21.89;47.91;99906.69;8335010;28;20357;-78
2022/07/02 06:46:24;;;;;;;;;;;;;;;22.08;47.84;99903.28;8320683;28;19929;-79
2022/07/02 06:50:26;;;;;;;;;;;;;;;22.14;47.79;99909.19;8340882;28;19936;-78
2022/07/02 06:54:33;;;;;;;;;;;;;;;22.27;47.52;99907.75;8332282;28;19928;-78
2022/07/02 06:58:35;;;;;;;;;;;;;;;22.38;46.57;99909.91;8338412;28;19943;-77
2022/07/02 07:02:38;;;;;;;;;;;;;;;22.55;46.28;99907.34;8323929;28;19928;-78
2022/07/02 07:06:43;;;;;;;;;;;;;;;22.71;46.24;99904.00;8316097;28;19940;-78
2022/07/02 07:10:45;;;;;;;;;;;;;;;23.01;45.31;99904.41;8323219;28;19929;-77
2022/07/02 07:14:46;;;;;;;;;;;;;;;23.29;44.55;99903.94;8309889;28;19968;-78
2022/07/02 07:18:56;;;;;;;;;;;;;;;23.39;43.87;99908.72;8327037;28;19960;-77
2022/07/02 07:22:59;;;;;;;;;;;;;;;23.60;43.99;99908.63;8323238;28;19956;-77
2022/07/02 07:27:01;;;;;;;;;;;;;;;23.78;42.95;99897.97;8325586;28;19965;-77
2022/07/02 07:31:02;;;;;;;;;;;;;;;23.93;43.42;99883.06;8334461;28;19939;-77
2022/07/02 07:35:04;;;;;;;;;;;;;;;24.14;43.96;99877.59;8330445;28;19929;-77
2022/07/02 07:39:06;;;;;;;;;;;;;;;24.34;43.44;99877.41;8319168;28;19991;-77
2022/07/02 07:43:07;;;;;;;;;;;;;;;24.48;41.22;99860.75;8330924;28;20023;-77
2022/07/02 07:47:09;;;;;;;;;;;;;;;24.56;41.24;99877.13;8314105;28;19939;-77
2022/07/02 07:51:10;;;;;;;;;;;;;;;24.69;42.01;99876.38;8355809;28;19928;-77
2022/07/02 07:55:12;;;;;;;;;;;;;;;24.83;40.48;99870.31;8334854;28;19986;-77
2022/07/02 07:59:13;;;;;;;;;;;;;;;25.00;40.10;99874.72;8357206;28;20043;-77
2022/07/02 08:03:17;;;;;;;;;;;;;;;25.25;40.28;99875.03;8359246;28;20023;-77
2022/07/02 08:07:18;;;;;;;;;;;;;;;25.26;38.24;99865.25;8360826;28;20401;-77
2022/07/02 08:11:20;;;;;;;;;;;;;;;25.33;39.31;99866.66;8374268;28;19924;-77
2022/07/02 08:15:21;;;;;;;;;;;;;;;25.45;38.51;99857.94;8338608;28;19960;-77
2022/07/02 08:19:22;;;;;;;;;;;;;;;25.72;38.51;99852.84;8334230;28;20028;-77
2022/07/02 08:23:24;;;;;;;;;;;;;;;25.97;37.23;99851.38;8311298;28;20055;-75
2022/07/02 08:27:25;;;;;;;;;;;;;;;26.11;37.71;99838.94;8323327;28;19964;-78
2022/07/02 08:31:27;;;;;;;;;;;;;;;26.31;37.30;99845.69;8334654;28;19972;-78
2022/07/02 08:35:28;;;;;;;;;;;;;;;26.46;36.21;99839.44;8297213;28;20032;-79
2022/07/02 08:39:30;;;;;;;;;;;;;;;26.60;36.63;99837.72;8271292;28;19925;-77
2022/07/02 08:43:31;;;;;;;;;;;;;;;26.71;36.10;99828.09;8301420;28;19933;-77
2022/07/02 08:47:33;;;;;;;;;;;;;;;26.78;35.14;99837.41;8308801;28;20319;-77
2022/07/02 08:51:34;;;;;;;;;;;;;;;26.80;34.17;99832.84;8341616;28;19925;-77
2022/07/02 08:55:36;;;;;;;;;;;;;;;26.38;33.25;99824.88;8333166;28;19944;-77
2022/07/02 08:59:38;;;;;;;;;;;;;;;26.46;34.97;99825.28;8333490;28;19928;-77
2022/07/02 09:03:41;;;;;;;;;;;;;;;26.74;34.57;99825.22;8333321;28;19960;-78
2022/07/02 09:07:44;;;;;;;;;;;;;;;26.86;33.63;99826.25;8340944;28;19933;-77
2022/07/02 09:11:46;;;;;;;;;;;;;;;26.88;33.19;99821.66;8330215;28;19972;-78
2022/07/02 09:15:48;;;;;;;;;;;;;;;27.02;33.55;99820.81;8327820;28;19943;-78
2022/07/02 09:19:50;;;;;;;;;;;;;;;26.84;32.65;99805.97;8339313;28;19979;-77
2022/07/02 09:23:51;;;;;;;;;;;;;;;27.01;34.38;99814.63;8325149;28;20408;-78
2022/07/02 09:27:57;;;;;;;;;;;;;;;27.05;32.47;99805.47;8334906;28;19956;-77
2022/07/02 09:31:59;;;;;;;;;;;;;;;27.19;32.26;99807.22;8324070;28;19982;-77
2022/07/02 09:36:00;;;;;;;;;;;;;;;27.22;30.58;99796.34;8339794;28;19975;-77
2022/07/02 09:40:03;;;;;;;;;;;;;;;27.10;31.13;99798.00;8359100;28;19928;-78
2022/07/02 09:44:05;;;;;;;;;;;;;;;27.18;30.05;99797.53;8352109;28;20024;-77
2022/07/02 09:48:06;;;;;;;;;;;;;;;27.23;30.78;99807.88;8356540;28;19942;-78
2022/07/02 09:52:13;;;;;;;;;;;;;;;27.26;30.34;99805.00;8348338;28;19929;-77
2022/07/02 09:56:14;;;;;;;;;;;;;;;27.11;30.38;99798.91;8344856;28;19955;-78
2022/07/02 10:00:16;;;;;;;;;;;;;;;27.21;31.06;99807.13;8344249;28;19955;-78
2022/07/02 10:04:27;;;;;;;;;;;;;;;27.33;31.30;99795.66;8357341;28;19935;-76
2022/07/02 10:08:31;;;;;;;;;;;;;;;27.44;31.70;99790.41;8349104;28;19947;-76
2022/07/02 10:12:33;;;;;;;;;;;;;;;27.65;31.29;99804.19;8373447;28;20023;-76
2022/07/02 10:16:34;;;;;;;;;;;;;;;27.60;30.96;99790.25;8359107;28;19928;-76
2022/07/02 10:20:36;;;;;;;;;;;;;;;27.74;31.88;99790.19;8358576;28;21656;-76
2022/07/02 10:24:38;;;;;;;;;;;;;;;27.69;31.47;99785.19;8365053;28;19975;-77
2022/07/02 10:28:40;;;;;;;;;;;;;;;27.75;31.48;99791.03;8351322;28;20335;-76
2022/07/02 10:32:56;;;;;;;;;;;;;;;27.98;32.16;99790.28;8341263;28;20290;-76
2022/07/02 10:36:58;;;;;;;;;;;;;;;28.14;31.00;99796.25;8365934;28;20714;-76
2022/07/02 10:40:59;;;;;;;;;;;;;;;28.15;30.87;99797.97;8352582;28;20023;-76
2022/07/02 10:45:08;;;;;;;;;;;;;;;27.95;29.72;99771.81;8355071;28;19936;-76
2022/07/02 10:49:09;;;;;;;;;;;;;;;27.86;29.34;99772.47;8351267;28;19928;-77
2022/07/02 10:53:12;;;;;;;;;;;;;;;28.01;31.53;99771.41;8373645;28;19929;-76
2022/07/02 10:57:18;;;;;;;;;;;;;;;28.10;31.27;99754.72;8372648;28;19936;-76
2022/07/02 11:01:21;;;;;;;;;;;;;;;28.23;32.10;99757.38;8354401;28;19950;-76
2022/07/02 11:05:22;;;;;;;;;;;;;;;28.19;31.58;99750.56;8369443;28;20599;-77
2022/07/02 11:09:24;;;;;;;;;;;;;;;28.02;30.73;99750.91;8337083;28;19928;-76
2022/07/02 11:13:33;;;;;;;;;;;;;;;27.95;31.30;99745.13;8366904;28;19928;-77
2022/07/02 11:17:35;;;;;;;;;;;;;;;28.03;29.99;99736.59;8348646;28;19967;-76
2022/07/02 11:21:38;;;;;;;;;;;;;;;28.18;31.82;99728.31;8365208;28;20506;-76
2022/07/02 11:25:39;;;;;;;;;;;;;;;28.27;31.98;99722.34;8364143;28;19928;-75
2022/07/02 11:29:51;;;;;;;;;;;;;;;28.28;32.62;99713.38;8351745;28;19939;-76
2022/07/02 11:33:53;;;;;;;;;;;;;;;28.36;31.54;99711.97;8342149;28;19928;-76
2022/07/02 11:37:59;;;;;;;;;;;;;;;28.39;29.84;99695.72;8323512;28;19929;-76
2022/07/02 11:42:01;;;;;;;;;;;;;;;28.36;29.70;99698.59;8325537;28;20333;-77
2022/07/02 11:46:02;;;;;;;;;;;;;;;28.31;30.45;99696.28;8319143;28;19929;-76
2022/07/02 11:50:04;;;;;;;;;;;;;;;28.39;30.38;99691.25;8333316;28;19964;-76
2022/07/02 11:54:07;;;;;;;;;;;;;;;28.51;31.06;99687.66;8333837;28;19929;-77
2022/07/02 11:58:08;;;;;;;;;;;;;;;28.59;30.72;99671.06;8321351;28;20036;-78
2022/07/02 12:02:10;;;;;;;;;;;;;;;28.78;31.31;99662.53;8312392;28;20288;-77
2022/07/02 12:06:12;;;;;;;;;;;;;;;28.95;31.13;99645.25;8316360;28;19965;-78
2022/07/02 12:10:14;;;;;;;;;;;;;;;29.03;30.79;99650.84;8327208;28;20294;-77
2022/07/02 12:14:16;;;;;;;;;;;;;;;29.08;29.85;99645.97;8326289;28;19991;-77
2022/07/02 12:18:18;;;;;;;;;;;;;;;29.02;30.39;99639.28;8308257;28;19940;-77
2022/07/02 12:22:24;;;;;;;;;;;;;;;28.91;29.49;99638.44;8316037;28;19979;-77
2022/07/02 12:26:26;;;;;;;;;;;;;;;28.86;30.40;99630.72;8326647;28;19928;-77
2022/07/02 12:30:29;;;;;;;;;;;;;;;29.06;30.73;99624.72;8325641;28;19931;-77
2022/07/02 12:34:44;;;;;;;;;;;;;;;29.18;31.60;99620.25;8324941;28;19928;-78
2022/07/02 12:38:45;;;;;;;;;;;;;;;29.12;29.90;99620.72;8360034;28;20048;-77
2022/07/02 12:43:05;;;;;;;;;;;;;;;29.06;31.99;99622.03;8359680;28;19933;-78
2022/07/02 12:47:06;;;;;;;;;;;;;;;29.01;31.69;99618.00;8332754;28;19929;-78
2022/07/02 12:51:08;;;;;;;;;;;;;;;29.10;31.82;99603.94;8322859;28;19983;-77
2022/07/02 12:55:42;;;;;;;;;;;;;;;29.09;31.79;99605.78;8336648;28;19939;-76
2022/07/02 12:59:44;;;;;;;;;;;;;;;29.23;31.10;99602.00;8292601;28;20277;-77
2022/07/02 13:03:46;;;;;;;;;;;;;;;29.27;29.37;99590.13;8316747;28;19972;-77
2022/07/02 13:07:47;;;;;;;;;;;;;;;29.45;31.43;99593.16;8314175;28;19932;-77
2022/07/02 13:11:48;;;;;;;;;;;;;;;29.63;31.17;99590.88;8332164;28;19929;-77
2022/07/02 13:15:50;;;;;;;;;;;;;;;29.48;29.25;99582.25;8320970;28;19928;-77
2022/07/02 13:19:51;;;;;;;;;;;;;;;29.60;30.54;99575.03;8357629;28;19929;-77
2022/07/02 13:23:53;;;;;;;;;;;;;;;29.78;31.16;99576.22;8355531;28;19929;-77
2022/07/02 13:27:54;;;;;;;;;;;;;;;29.71;30.49;99575.03;8348134;28;20318;-76
2022/07/02 13:31:57;;;;;;;;;;;;;;;29.58;29.26;99567.13;8361162;28;19955;-77
2022/07/02 13:35:59;;;;;;;;;;;;;;;29.69;30.51;99551.06;8364808;28;19958;-77
2022/07/02 13:40:00;;;;;;;;;;;;;;;29.49;29.37;99549.16;8338671;28;20759;-76
2022/07/02 13:44:02;;;;;;;;;;;;;;;29.64;30.35;99536.38;8352201;28;20259;-77
2022/07/02 13:48:03;;;;;;;;;;;;;;;29.74;29.39;99545.34;8354178;28;19983;-77
2022/07/02 13:52:05;;;;;;;;;;;;;;;29.70;28.80;99539.38;8370737;28;19986;-77
2022/07/02 13:56:06;;;;;;;;;;;;;;;29.87;30.35;99556.75;8372474;28;20340;-77
2022/07/02 14:00:08;;;;;;;;;;;;;;;29.93;30.06;99548.22;8357908;28;20298;-77
2022/07/02 14:04:09;;;;;;;;;;;;;;;29.98;29.55;99539.78;8369724;28;19928;-77
2022/07/02 14:08:11;;;;;;;;;;;;;;;29.77;30.13;99521.84;8356298;28;19928;-77
2022/07/02 14:12:12;;;;;;;;;;;;;;;29.70;28.40;99523.31;8370106;28;19968;-77
2022/07/02 14:16:14;;;;;;;;;;;;;;;29.69;29.17;99526.97;8362463;28;19933;-77
2022/07/02 14:20:15;;;;;;;;;;;;;;;29.61;29.39;99520.53;8364843;28;20080;-76
2022/07/02 14:24:37;;;;;;;;;;;;;;;29.67;29.26;99522.72;8370214;28;19933;-77
2022/07/02 14:28:39;;;;;;;;;;;;;;;29.74;29.42;99511.38;8361299;28;20336;-76
2022/07/02 14:32:40;;;;;;;;;;;;;;;29.86;30.18;99504.19;8346260;28;19935;-77
2022/07/02 14:36:42;;;;;;;;;;;;;;;29.88;29.48;99498.69;8317659;28;19952;-77
2022/07/02 14:40:44;;;;;;;;;;;;;;;30.03;31.03;99494.75;8316580;28;19975;-77
2022/07/02 14:44:45;;;;;;;;;;;;;;;30.15;30.23;99499.09;8328624;28;20331;-77
2022/07/02 14:48:47;;;;;;;;;;;;;;;30.21;29.80;99503.13;8306383;28;19974;-76
2022/07/02 14:52:49;;;;;;;;;;;;;;;30.26;28.53;99499.06;8308281;28;19931;-77
2022/07/02 14:56:50;;;;;;;;;;;;;;;30.07;28.14;99493.56;8328871;28;19964;-75
2022/07/02 15:00:51;;;;;;;;;;;;;;;30.17;29.30;99493.66;8303923;28;19940;-76
2022/07/02 15:04:53;;;;;;;;;;;;;;;30.26;28.70;99484.81;8331093;28;20032;-76
2022/07/02 15:08:54;;;;;;;;;;;;;;;30.26;29.77;99479.47;8328942;28;20560;-77
2022/07/02 15:12:56;;;;;;;;;;;;;;;30.31;29.46;99477.22;8301377;28;20409;-77
2022/07/02 15:16:57;;;;;;;;;;;;;;;30.36;29.75;99480.41;8311102;28;20024;-75
2022/07/02 15:20:59;;;;;;;;;;;;;;;30.37;29.01;99471.38;8308439;28;19929;-77
2022/07/02 15:25:02;;;;;;;;;;;;;;;30.49;29.35;99466.78;8310561;28;20382;-76
2022/07/02 15:29:07;;;;;;;;;;;;;;;30.46;27.87;99459.84;8330918;28;20028;-77
2022/07/02 15:33:09;;;;;;;;;;;;;;;30.54;28.80;99461.91;8317231;28;19939;-76
2022/07/02 15:37:11;;;;;;;;;;;;;;;30.63;28.30;99453.06;8359515;28;19971;-77
2022/07/02 15:41:12;;;;;;;;;;;;;;;30.73;28.72;99445.94;8351112;28;19951;-77
2022/07/02 15:45:18;;;;;;;;;;;;;;;30.53;29.54;99447.66;8352375;28;19933;-76
2022/07/02 15:49:19;;;;;;;;;;;;;;;30.71;29.42;99442.56;8346843;28;19938;-75
2022/07/02 15:53:22;;;;;;;;;;;;;;;30.65;28.95;99435.03;8363169;28;19940;-76
2022/07/02 15:57:31;;;;;;;;;;;;;;;30.36;28.60;99433.00;8356587;28;19963;-77
2022/07/02 16:01:32;;;;;;;;;;;;;;;30.48;29.68;99428.41;8354085;28;19939;-77
2022/07/02 16:05:35;;;;;;;;;;;;;;;30.52;29.39;99432.53;8350813;28;20727;-77
2022/07/02 16:09:37;;;;;;;;;;;;;;;30.60;29.07;99429.19;8364855;28;20690;-77
2022/07/02 16:13:39;;;;;;;;;;;;;;;30.65;28.76;99432.34;8366691;28;19929;-76
2022/07/02 16:17:41;;;;;;;;;;;;;;;30.68;27.90;99426.72;8343290;28;19939;-77
2022/07/02 16:21:44;;;;;;;;;;;;;;;30.48;25.92;99425.72;8362307;28;19982;-76
2022/07/02 16:25:45;;;;;;;;;;;;;;;30.19;26.55;99414.84;8354377;28;19983;-77
2022/07/02 16:29:47;;;;;;;;;;;;;;;30.38;28.34;99422.16;8349492;28;20119;-76
2022/07/02 16:33:54;;;;;;;;;;;;;;;30.13;27.01;99414.50;8345514;28;19980;-77
2022/07/02 16:37:58;;;;;;;;;;;;;;;29.91;27.29;99410.94;8360370;28;19939;-77
2022/07/02 16:41:59;;;;;;;;;;;;;;;29.59;28.01;99410.94;8363699;28;19964;-78
2022/07/02 16:46:11;;;;;;;;;;;;;;;29.29;27.90;99408.94;8353159;28;19932;-77
2022/07/02 16:50:14;;;;;;;;;;;;;;;28.87;29.10;99406.06;8351044;28;20597;-77
2022/07/02 16:54:17;;;;;;;;;;;;;;;28.48;30.29;99411.84;8364959;28;20136;-76
2022/07/02 16:58:18;;;;;;;;;;;;;;;28.05;30.44;99400.94;8353213;28;20038;-77
2022/07/02 17:02:22;;;;;;;;;;;;;;;27.69;29.86;99394.75;8318760;28;19929;-77
2022/07/02 17:06:25;;;;;;;;;;;;;;;27.43;31.40;99407.28;8332486;28;19990;-77
2022/07/02 17:14:46;;;;;;;;;;;;;;;26.92;33.32;99402.06;8365012;28;19928;-76
2022/07/02 17:18:48;;;;;;;;;;;;;;;26.72;32.40;99392.84;8357297;28;19968;-76
2022/07/02 17:22:49;;;;;;;;;;;;;;;26.50;34.60;99401.50;8366546;28;20294;-76
2022/07/02 17:26:51;;;;;;;;;;;;;;;26.30;33.24;99398.47;8348829;28;20292;-75
2022/07/02 17:30:52;;;;;;;;;;;;;;;26.24;34.08;99391.78;8366704;28;20388;-76
2022/07/02 17:34:54;;;;;;;;;;;;;;;26.20;34.22;99399.09;8363909;28;19929;-77
2022/07/02 17:38:55;;;;;;;;;;;;;;;26.06;37.32;99385.06;8350413;28;19964;-76
2022/07/02 17:42:56;;;;;;;;;;;;;;;25.82;38.28;99382.22;8368549;28;19943;-77
2022/07/02 17:46:58;;;;;;;;;;;;;;;25.50;37.29;99385.22;8353444;28;20031;-77
2022/07/02 17:50:59;;;;;;;;;;;;;;;25.33;36.68;99373.97;8374185;28;19960;-77
2022/07/02 17:55:02;;;;;;;;;;;;;;;25.22;37.56;99378.16;8349787;28;19933;-77
2022/07/02 17:59:03;;;;;;;;;;;;;;;25.11;38.21;99370.03;8368469;28;19972;-76
2022/07/02 18:03:05;;;;;;;;;;;;;;;24.97;39.34;99368.25;8350930;28;20347;-76
2022/07/02 18:07:07;;;;;;;;;;;;;;;24.75;40.02;99361.72;8369933;28;20314;-76
2022/07/02 18:11:11;;;;;;;;;;;;;;;24.64;38.79;99354.44;8350390;28;19987;-76
2022/07/02 18:15:13;;;;;;;;;;;;;;;24.41;42.36;99354.03;8365543;28;19928;-76
2022/07/02 18:19:14;;;;;;;;;;;;;;;24.21;41.97;99353.53;8351904;28;20340;-76
2022/07/02 18:23:16;;;;;;;;;;;;;;;23.95;44.93;99355.97;8363933;28;19929;-76
2022/07/02 18:27:18;;;;;;;;;;;;;;;23.59;46.01;99358.13;8340182;28;20692;-76
2022/07/02 18:31:19;;;;;;;;;;;;;;;23.32;46.76;99360.53;8364993;28;19990;-76
2022/07/02 18:35:20;;;;;;;;;;;;;;;23.16;47.45;99352.59;8355735;28;19928;-77
2022/07/02 18:39:22;;;;;;;;;;;;;;;22.97;49.75;99359.88;8366520;28;21381;-77
2022/07/02 18:43:23;;;;;;;;;;;;;;;22.72;49.35;99357.69;8366409;28;19939;-77
2022/07/02 18:47:25;;;;;;;;;;;;;;;22.46;49.86;99354.69;8345685;28;20532;-77
2022/07/02 18:51:26;;;;;;;;;;;;;;;22.26;50.96;99355.75;8347435;28;19929;-77
2022/07/02 18:55:28;;;;;;;;;;;;;;;22.05;50.89;99356.00;8338326;28;19976;-77
2022/07/02 18:59:30;;;;;;;;;;;;;;;21.87;51.17;99360.41;8358656;28;19976;-77
2022/07/02 19:03:31;;;;;;;;;;;;;;;21.68;51.65;99352.56;8353322;28;20330;-77
2022/07/02 19:07:32;;;;;;;;;;;;;;;21.53;54.09;99355.97;8358367;28;20396;-77
2022/07/02 19:11:34;;;;;;;;;;;;;;;21.37;54.99;99359.38;8344178;28;20096;-77
2022/07/02 19:15:35;;;;;;;;;;;;;;;21.21;53.12;99357.53;8357337;28;19990;-77
2022/07/02 19:19:37;;;;;;;;;;;;;;;21.00;53.89;99372.59;8344235;28;20047;-77
2022/07/02 19:23:39;;;;;;;;;;;;;;;20.86;53.90;99359.19;8345557;28;20357;-77
2022/07/02 19:32:01;;;;;;;;;;;;;;;20.55;56.38;99365.88;8355959;28;20487;-77
2022/07/02 19:36:02;;;;;;;;;;;;;;;20.40;56.19;99364.75;8326138;28;19968;-77
2022/07/02 19:40:04;;;;;;;;;;;;;;;20.31;56.26;99357.28;8331034;28;20079;-77
2022/07/02 19:44:05;;;;;;;;;;;;;;;20.12;57.27;99362.50;8308337;28;20009;-74
2022/07/02 19:48:07;;;;;;;;;;;;;;;19.95;58.11;99359.75;8323385;28;19964;-76
2022/07/02 19:52:08;;;;;;;;;;;;;;;19.79;59.11;99356.91;8328491;28;19943;-76
2022/07/02 19:56:10;;;;;;;;;;;;;;;19.69;60.24;99363.47;8311798;28;20365;-76
2022/07/02 20:00:13;;;;;;;;;;;;;;;19.50;61.20;99359.84;8307151;28;19929;-76
2022/07/02 20:04:14;;;;;;;;;;;;;;;19.45;61.14;99367.97;8305880;28;20012;-77
2022/07/02 20:08:16;;;;;;;;;;;;;;;19.38;61.73;99366.47;8322579;28;20568;-76
2022/07/02 20:12:17;;;;;;;;;;;;;;;19.26;62.18;99367.00;8322067;28;20331;-76
2022/07/02 20:16:20;;;;;;;;;;;;;;;19.12;62.26;99369.31;8311378;28;19933;-76
2022/07/02 20:20:23;;;;;;;;;;;;;;;18.99;62.10;99379.44;8322646;28;19936;-76
2022/07/02 20:24:24;;;;;;;;;;;;;;;18.82;64.01;99385.34;8315791;28;20251;-78
2022/07/02 20:28:26;;;;;;;;;;;;;;;18.70;64.53;99384.06;8307526;28;20302;-76
2022/07/02 20:32:27;;;;;;;;;;;;;;;18.66;63.80;99392.09;8326094;28;19942;-77
2022/07/02 20:36:29;;;;;;;;;;;;;;;18.55;64.12;99386.38;8356445;28;19986;-76
2022/07/02 20:40:32;;;;;;;;;;;;;;;18.45;64.27;99391.09;8344816;28;19933;-76
2022/07/02 20:44:34;;;;;;;;;;;;;;;18.40;64.25;99386.00;8361709;28;19929;-77
2022/07/02 20:48:35;;;;;;;;;;;;;;;18.32;65.18;99393.34;8347293;28;19928;-76
2022/07/02 20:52:38;;;;;;;;;;;;;;;18.19;64.44;99392.03;8335966;28;19932;-76
2022/07/02 20:56:40;;;;;;;;;;;;;;;18.05;65.93;99381.16;8363392;28;19939;-77
2022/07/02 21:00:41;;;;;;;;;;;;;;;17.94;66.97;99386.78;8354553;28;20012;-77
2022/07/02 21:04:43;;;;;;;;;;;;;;;17.87;66.81;99389.66;8350894;28;19971;-78
2022/07/02 21:08:44;;;;;;;;;;;;;;;17.80;66.85;99397.78;8335983;28;20439;-74
2022/07/02 21:12:46;;;;;;;;;;;;;;;17.68;67.60;99397.31;8356709;28;20566;-74
2022/07/02 21:16:47;;;;;;;;;;;;;;;17.52;68.16;99400.41;8353763;28;19939;-74